SWR27A LSGG-LSZH
Flight info
| Callsign | SWR27A |
|---|---|
| Flight time | 0h 29m |
| Altitude | 17000 |
| Route | SOSAL N871 BERSU |
| Aircraft | A339/H-SADE1E2E3GHIJ3J5M1P2RWXY/LB2D1 |
Departure
| Time | 2026-04-30 13:41 |
|---|---|
| Airport | Geneva International Airport (LSGG) |
Arrival
| Time | 2026-04-30 14:10 |
|---|---|
| Airport | Zürich Airport (LSZH) |
| Time | Latitude | Longitude | Altitude | Speed | Heading |
|---|---|---|---|---|---|
| 2026-04-30 13:18 | 46.23466 | 6.11174 | 1407 ft | 0 kts | 135° |
| 2026-04-30 13:20 | 46.23466 | 6.11173 | 1407 ft | 0 kts | 135° |
| 2026-04-30 13:26 | 46.23503 | 6.11135 | 1409 ft | 2 kts | 175° |
| 2026-04-30 13:26 | 46.23537 | 6.11135 | 1407 ft | 2 kts | 191° |
| 2026-04-30 13:27 | 46.23560 | 6.11142 | 1406 ft | 1 kts | 214° |
| 2026-04-30 13:35 | 46.23557 | 6.11139 | 1406 ft | 0 kts | 214° |
| 2026-04-30 13:36 | 46.23522 | 6.11090 | 1428 ft | 9 kts | 223° |
| 2026-04-30 13:36 | 46.23486 | 6.11030 | 1407 ft | 9 kts | 220° |
| 2026-04-30 13:36 | 46.23386 | 6.10901 | 1401 ft | 19 kts | 224° |
| 2026-04-30 13:37 | 46.23359 | 6.10799 | 1406 ft | 7 kts | 286° |
| 2026-04-30 13:37 | 46.23403 | 6.10649 | 1402 ft | 7 kts | 235° |
| 2026-04-30 13:38 | 46.23294 | 6.10493 | 1405 ft | 15 kts | 223° |
| 2026-04-30 13:38 | 46.23211 | 6.10378 | 1409 ft | 18 kts | 224° |
| 2026-04-30 13:38 | 46.23022 | 6.10071 | 1411 ft | 23 kts | 226° |
| 2026-04-30 13:39 | 46.22774 | 6.09714 | 1411 ft | 28 kts | 225° |
| 2026-04-30 13:39 | 46.22547 | 6.09270 | 1419 ft | 22 kts | 265° |
| 2026-04-30 13:40 | 46.22587 | 6.09186 | 1424 ft | 6 kts | 349° |
| 2026-04-30 13:40 | 46.22630 | 6.09186 | 1427 ft | 11 kts | 7° |
| 2026-04-30 13:40 | 46.22805 | 6.09408 | 1428 ft | 80 kts | 46° |
| 2026-04-30 13:40 | 46.23467 | 6.10366 | 1424 ft | 181 kts | 44° |
| 2026-04-30 13:41 | 46.24444 | 6.11789 | 2099 ft | 212 kts | 45° |
| 2026-04-30 13:41 | 46.25525 | 6.13372 | 3191 ft | 227 kts | 45° |
| 2026-04-30 13:41 | 46.26671 | 6.14971 | 4322 ft | 230 kts | 43° |
| 2026-04-30 13:41 | 46.27857 | 6.16635 | 5226 ft | 247 kts | 43° |
| 2026-04-30 13:42 | 46.29107 | 6.18460 | 5896 ft | 260 kts | 45° |
| 2026-04-30 13:42 | 46.30374 | 6.20373 | 6704 ft | 264 kts | 45° |
| 2026-04-30 13:42 | 46.32870 | 6.24158 | 8280 ft | 270 kts | 45° |
| 2026-04-30 13:43 | 46.34178 | 6.26122 | 9079 ft | 274 kts | 45° |
| 2026-04-30 13:43 | 46.35508 | 6.28133 | 9901 ft | 278 kts | 47° |
| 2026-04-30 13:43 | 46.36544 | 6.30522 | 10494 ft | 292 kts | 62° |
| 2026-04-30 13:43 | 46.37488 | 6.33268 | 10874 ft | 316 kts | 63° |
| 2026-04-30 13:44 | 46.38469 | 6.36239 | 11239 ft | 338 kts | 64° |
| 2026-04-30 13:44 | 46.39491 | 6.39348 | 11989 ft | 344 kts | 64° |
| 2026-04-30 13:44 | 46.40528 | 6.42482 | 12899 ft | 346 kts | 64° |
| 2026-04-30 13:44 | 46.41582 | 6.45644 | 13780 ft | 349 kts | 64° |
| 2026-04-30 13:45 | 46.43707 | 6.51997 | 14978 ft | 353 kts | 64° |
| 2026-04-30 13:45 | 46.44784 | 6.55219 | 15121 ft | 354 kts | 64° |
| 2026-04-30 13:45 | 46.45824 | 6.58335 | 15171 ft | 354 kts | 64° |
| 2026-04-30 13:46 | 46.46896 | 6.61551 | 15171 ft | 355 kts | 64° |
| 2026-04-30 13:46 | 46.47974 | 6.64791 | 15174 ft | 355 kts | 64° |
| 2026-04-30 13:46 | 46.49039 | 6.67994 | 15171 ft | 354 kts | 64° |
| 2026-04-30 13:46 | 46.50114 | 6.71234 | 15176 ft | 354 kts | 64° |
| 2026-04-30 13:47 | 46.51180 | 6.74452 | 15173 ft | 354 kts | 63° |
| 2026-04-30 13:47 | 46.52239 | 6.77644 | 15175 ft | 354 kts | 64° |
| 2026-04-30 13:47 | 46.53305 | 6.80871 | 15173 ft | 354 kts | 64° |
| 2026-04-30 13:47 | 46.54370 | 6.84093 | 15179 ft | 353 kts | 64° |
| 2026-04-30 13:48 | 46.55457 | 6.87297 | 15178 ft | 354 kts | 60° |
| 2026-04-30 13:48 | 46.56801 | 6.90291 | 15178 ft | 353 kts | 52° |
| 2026-04-30 13:48 | 46.58355 | 6.93057 | 15180 ft | 352 kts | 50° |
| 2026-04-30 13:48 | 46.59912 | 6.95818 | 15179 ft | 353 kts | 50° |
| 2026-04-30 13:49 | 46.61456 | 6.98584 | 15180 ft | 352 kts | 50° |
| 2026-04-30 13:49 | 46.62994 | 7.01357 | 15182 ft | 352 kts | 51° |
| 2026-04-30 13:49 | 46.64493 | 7.04065 | 15184 ft | 352 kts | 51° |
| 2026-04-30 13:49 | 46.66022 | 7.06836 | 15180 ft | 352 kts | 51° |
| 2026-04-30 13:50 | 46.67557 | 7.09614 | 15180 ft | 351 kts | 50° |
| 2026-04-30 13:50 | 46.70608 | 7.15131 | 15183 ft | 351 kts | 50° |
| 2026-04-30 13:50 | 46.72171 | 7.17957 | 15180 ft | 351 kts | 51° |
| 2026-04-30 13:51 | 46.73699 | 7.20734 | 15181 ft | 351 kts | 51° |
| 2026-04-30 13:51 | 46.75203 | 7.23473 | 15181 ft | 351 kts | 51° |
| 2026-04-30 13:51 | 46.76733 | 7.26263 | 15165 ft | 351 kts | 51° |
| 2026-04-30 13:51 | 46.78267 | 7.29057 | 15163 ft | 352 kts | 51° |
| 2026-04-30 13:52 | 46.79760 | 7.31773 | 15161 ft | 350 kts | 51° |
| 2026-04-30 13:52 | 46.81319 | 7.34616 | 15164 ft | 350 kts | 51° |
| 2026-04-30 13:52 | 46.82827 | 7.37369 | 15159 ft | 352 kts | 51° |
| 2026-04-30 13:52 | 46.84354 | 7.40161 | 15157 ft | 351 kts | 51° |
| 2026-04-30 13:53 | 46.85632 | 7.42498 | 15157 ft | 350 kts | 51° |
| 2026-04-30 13:53 | 46.87156 | 7.45293 | 15155 ft | 351 kts | 51° |
| 2026-04-30 13:53 | 46.88675 | 7.48080 | 15156 ft | 350 kts | 51° |
| 2026-04-30 13:53 | 46.90198 | 7.50875 | 15155 ft | 351 kts | 51° |
| 2026-04-30 13:54 | 46.91718 | 7.53673 | 15156 ft | 350 kts | 51° |
| 2026-04-30 13:54 | 46.93227 | 7.56452 | 14753 ft | 349 kts | 51° |
| 2026-04-30 13:54 | 46.94749 | 7.59252 | 13840 ft | 354 kts | 51° |
| 2026-04-30 13:54 | 46.96285 | 7.62072 | 12825 ft | 353 kts | 51° |
| 2026-04-30 13:55 | 46.97795 | 7.64854 | 11907 ft | 349 kts | 51° |
| 2026-04-30 13:55 | 46.99290 | 7.67619 | 11447 ft | 349 kts | 51° |
| 2026-04-30 13:55 | 47.00808 | 7.70429 | 11248 ft | 351 kts | 51° |
| 2026-04-30 13:55 | 47.02315 | 7.73220 | 11173 ft | 350 kts | 51° |
| 2026-04-30 13:56 | 47.03858 | 7.75976 | 11159 ft | 349 kts | 46° |
| 2026-04-30 13:56 | 47.05818 | 7.78063 | 11164 ft | 349 kts | 27° |
| 2026-04-30 13:56 | 47.08038 | 7.79413 | 11168 ft | 350 kts | 20° |
| 2026-04-30 13:56 | 47.10337 | 7.80577 | 11183 ft | 350 kts | 19° |
| 2026-04-30 13:57 | 47.12641 | 7.81750 | 11180 ft | 349 kts | 20° |
| 2026-04-30 13:57 | 47.14928 | 7.82977 | 11181 ft | 349 kts | 21° |
| 2026-04-30 13:57 | 47.17193 | 7.84260 | 11182 ft | 349 kts | 22° |
| 2026-04-30 13:57 | 47.19455 | 7.85583 | 11178 ft | 350 kts | 22° |
| 2026-04-30 13:58 | 47.21718 | 7.86917 | 11184 ft | 349 kts | 22° |
| 2026-04-30 13:58 | 47.26228 | 7.89601 | 11189 ft | 348 kts | 22° |
| 2026-04-30 13:58 | 47.28437 | 7.90913 | 11004 ft | 344 kts | 22° |
| 2026-04-30 13:59 | 47.30664 | 7.92236 | 10454 ft | 342 kts | 22° |
| 2026-04-30 13:59 | 47.32719 | 7.93454 | 10255 ft | 322 kts | 22° |
| 2026-04-30 13:59 | 47.34770 | 7.94670 | 10037 ft | 298 kts | 23° |
| 2026-04-30 13:59 | 47.36633 | 7.95780 | 9572 ft | 284 kts | 23° |
| 2026-04-30 14:00 | 47.38451 | 7.96878 | 8836 ft | 281 kts | 23° |
| 2026-04-30 14:00 | 47.41603 | 8.00021 | 7524 ft | 269 kts | 43° |
| 2026-04-30 14:00 | 47.42996 | 8.01879 | 7305 ft | 274 kts | 43° |
| 2026-04-30 14:01 | 47.44394 | 8.03745 | 7160 ft | 274 kts | 44° |
| 2026-04-30 14:01 | 47.45798 | 8.05619 | 6915 ft | 269 kts | 43° |
| 2026-04-30 14:01 | 47.47181 | 8.07465 | 6346 ft | 266 kts | 43° |
| 2026-04-30 14:01 | 47.48537 | 8.09248 | 6072 ft | 255 kts | 43° |
| 2026-04-30 14:02 | 47.49865 | 8.10983 | 5988 ft | 259 kts | 43° |
| 2026-04-30 14:02 | 47.51225 | 8.12775 | 5967 ft | 266 kts | 43° |
| 2026-04-30 14:02 | 47.52619 | 8.14609 | 5969 ft | 267 kts | 43° |
| 2026-04-30 14:02 | 47.53536 | 8.15802 | 5984 ft | 263 kts | 43° |
| 2026-04-30 14:03 | 47.55359 | 8.18190 | 5985 ft | 264 kts | 43° |
| 2026-04-30 14:03 | 47.56730 | 8.19985 | 5976 ft | 263 kts | 43° |
| 2026-04-30 14:03 | 47.58105 | 8.21783 | 5980 ft | 263 kts | 43° |
| 2026-04-30 14:03 | 47.59012 | 8.22972 | 5955 ft | 261 kts | 43° |
| 2026-04-30 14:04 | 47.60364 | 8.24740 | 5703 ft | 256 kts | 44° |
| 2026-04-30 14:04 | 47.61670 | 8.26485 | 5117 ft | 249 kts | 47° |
| 2026-04-30 14:04 | 47.62616 | 8.28544 | 4417 ft | 239 kts | 70° |
| 2026-04-30 14:04 | 47.62746 | 8.30945 | 4145 ft | 240 kts | 98° |
| 2026-04-30 14:05 | 47.62087 | 8.33323 | 4011 ft | 253 kts | 115° |
| 2026-04-30 14:05 | 47.61164 | 8.35369 | 3995 ft | 231 kts | 129° |
| 2026-04-30 14:05 | 47.60065 | 8.36981 | 3996 ft | 212 kts | 131° |
| 2026-04-30 14:05 | 47.59062 | 8.38449 | 3996 ft | 194 kts | 130° |
| 2026-04-30 14:06 | 47.58145 | 8.39813 | 3963 ft | 180 kts | 129° |
| 2026-04-30 14:06 | 47.56459 | 8.42309 | 3888 ft | 161 kts | 129° |
| 2026-04-30 14:07 | 47.54792 | 8.44567 | 3549 ft | 169 kts | 134° |
| 2026-04-30 14:07 | 47.53867 | 8.45714 | 3188 ft | 177 kts | 135° |
| 2026-04-30 14:07 | 47.52950 | 8.46920 | 2913 ft | 173 kts | 131° |
| 2026-04-30 14:08 | 47.51306 | 8.49280 | 2231 ft | 150 kts | 129° |
| 2026-04-30 14:08 | 47.50582 | 8.50292 | 2024 ft | 137 kts | 129° |
| 2026-04-30 14:08 | 47.49134 | 8.52302 | 1655 ft | 137 kts | 132° |
| 2026-04-30 14:09 | 47.48419 | 8.53292 | 1516 ft | 143 kts | 130° |
| 2026-04-30 14:09 | 47.47737 | 8.54267 | 1409 ft | 126 kts | 135° |
| 2026-04-30 14:09 | 47.46915 | 8.55387 | 1403 ft | 53 kts | 140° |
| 2026-04-30 14:10 | 47.46625 | 8.55673 | 1409 ft | 45 kts | 166° |
| 2026-04-30 14:10 | 47.46455 | 8.55729 | 1406 ft | 2 kts | 167° |
| 2026-04-30 14:11 | 47.46451 | 8.55730 | 1409 ft | 3 kts | 167° |
| 2026-04-30 14:11 | 47.46411 | 8.55743 | 1405 ft | 9 kts | 167° |
| 2026-04-30 14:11 | 47.46350 | 8.55798 | 1407 ft | 12 kts | 135° |
| 2026-04-30 14:11 | 47.46287 | 8.55886 | 1412 ft | 14 kts | 138° |
| 2026-04-30 14:12 | 47.46206 | 8.55980 | 1410 ft | 15 kts | 152° |
| 2026-04-30 14:12 | 47.46097 | 8.55996 | 1406 ft | 17 kts | 185° |
| 2026-04-30 14:12 | 47.45972 | 8.55972 | 1409 ft | 20 kts | 195° |
| 2026-04-30 14:12 | 47.45853 | 8.55912 | 1409 ft | 12 kts | 201° |
| 2026-04-30 14:13 | 47.45836 | 8.55901 | 1410 ft | 0 kts | 203° |
| 2026-04-30 14:14 | 47.45834 | 8.55900 | 1411 ft | 2 kts | 203° |
| 2026-04-30 14:15 | 47.45801 | 8.55883 | 1411 ft | 7 kts | 194° |
| 2026-04-30 14:15 | 47.45737 | 8.55873 | 1406 ft | 11 kts | 187° |
| 2026-04-30 14:15 | 47.45659 | 8.55859 | 1408 ft | 6 kts | 186° |
| 2026-04-30 14:15 | 47.45639 | 8.55856 | 1407 ft | 3 kts | 185° |
| 2026-04-30 14:16 | 47.45638 | 8.55856 | 1407 ft | 0 kts | 185° |
| 2026-04-30 14:16 | 47.45636 | 8.55854 | 1408 ft | 1 kts | 191° |
| 2026-04-30 14:16 | 47.45632 | 8.55843 | 1412 ft | 1 kts | 223° |
| 2026-04-30 14:16 | 47.45633 | 8.55831 | 1412 ft | 1 kts | 253° |
| 2026-04-30 14:17 | 47.45637 | 8.55814 | 1411 ft | 3 kts | 277° |
| 2026-04-30 14:17 | 47.45642 | 8.55757 | 1408 ft | 8 kts | 278° |
| 2026-04-30 14:17 | 47.45652 | 8.55652 | 1406 ft | 13 kts | 278° |
| 2026-04-30 14:17 | 47.45664 | 8.55501 | 1406 ft | 17 kts | 274° |
| 2026-04-30 14:18 | 47.45676 | 8.55309 | 1410 ft | 18 kts | 276° |
| 2026-04-30 14:18 | 47.45670 | 8.55233 | 1411 ft | 7 kts | 243° |
| 2026-04-30 14:18 | 47.45576 | 8.55253 | 1409 ft | 10 kts | 153° |
| 2026-04-30 14:19 | 47.45386 | 8.55382 | 1410 ft | 22 kts | 155° |
| 2026-04-30 14:19 | 47.45225 | 8.55493 | 1411 ft | 29 kts | 154° |
| 2026-04-30 14:19 | 47.45039 | 8.55623 | 1411 ft | 24 kts | 154° |
| 2026-04-30 14:20 | 47.44963 | 8.55721 | 1410 ft | 11 kts | 102° |
| 2026-04-30 14:20 | 47.44957 | 8.55825 | 1410 ft | 6 kts | 83° |
| 2026-04-30 14:20 | 47.45004 | 8.55849 | 1406 ft | 0 kts | 9° |
| 2026-04-30 14:21 | 47.45019 | 8.55853 | 1409 ft | 4 kts | 9° |
| 2026-04-30 14:21 | 47.45039 | 8.55857 | 1405 ft | 0 kts | 7° |
| 2026-04-30 14:21 | 47.45040 | 8.55857 | 1405 ft | 0 kts | 7° |